Time;durP1;ratioP1;P1;durP2;ratioP2;P2;SDS_P1;SDS_P2;PMS_P1;PMS_P2;Temp;Humidity;BMP_temperature;BMP_pressure;BME280_temperature;BME280_humidity;BME280_pressure;Samples;Min_cycle;Max_cycle;Signal;HPM_P1;HPM_P2
2023/10/01 00:00:17;;;;;;;5.25;3.40;;;;;;;19.79;57.14;102347.56;5072730;28;20047;-49
2023/10/01 00:02:43;;;;;;;;;;;;;;;19.80;57.11;102356.53;5073671;28;20017;-51
2023/10/01 00:05:10;;;;;;;5.85;3.45;;;;;;;19.78;57.25;102353.09;5067399;28;20369;-49
2023/10/01 00:07:40;;;;;;;6.93;4.18;;;;;;;19.77;57.12;102356.81;5073624;28;20147;-49
2023/10/01 00:10:09;;;;;;;5.95;3.65;;;;;;;19.77;56.80;102354.09;5072273;28;20028;-49
2023/10/01 00:12:35;;;;;;;5.53;3.65;;;;;;;19.75;57.11;102350.69;5074615;28;20031;-48
2023/10/01 00:15:00;;;;;;;4.88;3.67;;;;;;;19.75;56.83;102347.97;5064279;28;20031;-48
2023/10/01 00:17:26;;;;;;;5.07;3.58;;;;;;;19.74;56.96;102341.72;5072096;28;20024;-49
2023/10/01 00:19:51;;;;;;;4.85;3.80;;;;;;;19.76;57.02;102347.00;5069118;28;20476;-49
2023/10/01 00:22:17;;;;;;;5.32;3.70;;;;;;;19.75;56.96;102345.28;5076063;28;20040;-51
2023/10/01 00:24:43;;;;;;;5.80;4.05;;;;;;;19.59;56.99;102310.72;5074367;28;20025;-51
2023/10/01 00:27:09;;;;;;;4.60;3.42;;;;;;;19.53;57.06;102305.88;5068630;28;20032;-53
2023/10/01 00:29:34;;;;;;;6.25;3.78;;;;;;;19.74;56.96;102339.03;5074603;28;20029;-49
2023/10/01 00:31:59;;;;;;;4.78;3.50;;;;;;;19.73;57.03;102322.00;5071511;28;20040;-50
2023/10/01 00:34:25;;;;;;;5.38;3.53;;;;;;;19.73;56.90;102327.41;5072955;28;20038;-49
2023/10/01 00:36:52;;;;;;;5.35;3.72;;;;;;;19.73;56.92;102321.16;5073834;28;20048;-48
2023/10/01 00:39:17;;;;;;;5.18;3.50;;;;;;;19.71;56.73;102318.59;5071774;28;20056;-48
2023/10/01 00:41:44;;;;;;;4.80;3.92;;;;;;;19.72;56.82;102308.66;5072934;28;20035;-50
2023/10/01 00:44:11;;;;;;;5.05;3.78;;;;;;;19.72;56.90;102300.56;5075598;28;20531;-51
2023/10/01 00:46:37;;;;;;;7.35;4.13;;;;;;;19.71;56.60;102302.41;5067773;28;20092;-49
2023/10/01 00:49:02;;;;;;;5.13;3.83;;;;;;;19.69;57.13;102300.84;5075248;28;20040;-51
2023/10/01 00:51:31;;;;;;;4.53;3.38;;;;;;;19.72;56.90;102303.25;5073438;28;20045;-51
2023/10/01 00:53:56;;;;;;;4.50;3.78;;;;;;;19.72;56.83;102303.25;5069808;28;20028;-49
2023/10/01 00:56:22;;;;;;;4.65;3.67;;;;;;;19.71;57.08;102302.41;5074733;28;20034;-48
2023/10/01 00:58:48;;;;;;;4.22;3.25;;;;;;;19.67;57.04;102290.19;5057711;28;20025;-50
2023/10/01 01:01:16;;;;;;;6.30;4.25;;;;;;;19.70;56.78;102300.69;5075089;28;20032;-52
2023/10/01 01:03:43;;;;;;;4.82;3.45;;;;;;;19.70;57.08;102297.13;5077484;28;20048;-49
2023/10/01 01:06:17;;;;;;;4.30;3.80;;;;;;;19.70;56.85;102295.28;5071357;28;20029;-48
2023/10/01 01:08:46;;;;;;;5.00;3.60;;;;;;;19.71;56.96;102293.47;5076976;28;20036;-48
2023/10/01 01:11:15;;;;;;;5.90;3.40;;;;;;;19.68;56.67;102293.72;5073179;28;20047;-49
2023/10/01 01:13:43;;;;;;;4.53;3.53;;;;;;;19.68;56.91;102291.88;5074306;28;20029;-49
2023/10/01 01:16:11;;;;;;;5.35;4.00;;;;;;;19.68;56.67;102291.88;5073511;28;20036;-49
2023/10/01 01:18:38;;;;;;;4.50;3.38;;;;;;;19.68;57.01;102286.50;5073918;28;20068;-52
2023/10/01 01:21:09;;;;;;;5.07;3.60;;;;;;;19.68;56.07;102282.94;5069640;28;20109;-50
2023/10/01 01:23:35;;;;;;;5.35;4.30;;;;;;;19.68;56.72;102278.41;5075829;28;20025;-49
2023/10/01 01:26:00;;;;;;;5.72;3.75;;;;;;;19.68;56.81;102275.69;5054740;28;20112;-51
2023/10/01 01:28:30;;;;;;;4.88;3.90;;;;;;;19.67;56.81;102282.09;5068809;28;20513;-51
2023/10/01 01:30:58;;;;;;;4.50;3.72;;;;;;;19.67;56.96;102279.41;5059077;28;20028;-49
2023/10/01 01:33:31;;;;;;;5.17;3.27;;;;;;;19.63;56.82;102263.63;5054402;28;20024;-49
2023/10/01 01:36:06;;;;;;;3.88;3.17;;;;;;;19.67;56.52;102279.41;5070299;28;20312;-49
2023/10/01 01:38:36;;;;;;;5.78;4.03;;;;;;;19.67;56.91;102276.69;5053749;28;20057;-50
2023/10/01 01:41:03;;;;;;;5.80;4.38;;;;;;;19.67;56.66;102275.84;5066828;28;20021;-49
2023/10/01 01:43:31;;;;;;;4.20;3.58;;;;;;;19.66;56.80;102266.03;5068105;28;20044;-50
2023/10/01 01:46:03;;;;;;;5.07;3.42;;;;;;;19.66;56.82;102264.16;5071842;28;20033;-50
2023/10/01 01:50:55;;;;;;;5.18;3.58;;;;;;;19.65;57.01;102262.47;5068965;28;20025;-50
2023/10/01 01:53:21;;;;;;;4.68;3.42;;;;;;;19.65;56.75;102265.19;5068431;28;20024;-49
2023/10/01 01:55:47;;;;;;;6.35;4.15;;;;;;;19.65;56.83;102259.78;5072387;28;20040;-49
2023/10/01 01:58:15;;;;;;;5.07;3.28;;;;;;;19.64;56.90;102263.47;5071600;28;20095;-50
2023/10/01 02:01:01;;;;;;;5.05;3.50;;;;;;;19.64;56.75;102260.78;5066851;28;20028;-49
2023/10/01 02:03:32;;;;;;;4.10;3.33;;;;;;;19.64;56.92;102259.94;5070048;28;20039;-48
2023/10/01 02:05:58;;;;;;;5.65;3.85;;;;;;;19.64;56.83;102259.94;5070041;28;20071;-52
2023/10/01 02:08:23;;;;;;;3.97;3.17;;;;;;;19.48;56.96;102231.63;5070128;28;20136;-50
2023/10/01 02:10:52;;;;;;;5.05;3.53;;;;;;;19.59;56.56;102252.22;5066829;28;20017;-51
2023/10/01 02:13:18;;;;;;;4.93;3.83;;;;;;;19.64;56.61;102252.69;5053463;28;20106;-51
2023/10/01 02:15:45;;;;;;;5.53;3.55;;;;;;;19.63;56.54;102256.38;5075588;28;20037;-49
2023/10/01 02:18:13;;;;;;;4.75;3.60;;;;;;;19.63;56.91;102258.22;5071674;28;20025;-50
2023/10/01 02:20:40;;;;;;;4.35;3.40;;;;;;;19.63;56.80;102263.63;5072073;28;20028;-48
2023/10/01 02:23:12;;;;;;;6.43;3.65;;;;;;;19.51;56.63;102240.44;5066903;28;20021;-51
2023/10/01 02:25:45;;;;;;;4.38;3.55;;;;;;;19.54;56.66;102243.72;5072832;28;20028;-54
2023/10/01 02:28:14;;;;;;;5.65;3.25;;;;;;;19.62;56.60;102257.34;5069750;28;20051;-50
2023/10/01 02:30:46;;;;;;;4.82;3.53;;;;;;;19.62;56.44;102260.06;5073353;28;20024;-52
2023/10/01 02:33:21;;;;;;;4.07;3.00;;;;;;;19.61;56.80;102263.75;5075954;28;20037;-50
2023/10/01 02:35:49;;;;;;;4.97;3.35;;;;;;;19.62;56.48;102261.91;5050008;28;20662;-50
2023/10/01 02:41:01;;;;;;;5.53;3.67;;;;;;;19.61;56.88;102262.91;5075172;28;20032;-48
2023/10/01 02:43:33;;;;;;;4.68;3.35;;;;;;;19.61;56.84;102262.91;5070632;28;20106;-50
2023/10/01 02:46:07;;;;;;;4.32;3.45;;;;;;;19.61;56.68;102252.09;5074759;28;20025;-51
2023/10/01 02:48:34;;;;;;;3.97;3.00;;;;;;;19.60;56.81;102256.63;5076244;28;20040;-49
2023/10/01 02:51:14;;;;;;;4.47;3.22;;;;;;;19.61;56.67;102257.50;5071730;28;20025;-52
2023/10/01 02:54:08;;;;;;;5.03;3.33;;;;;;;19.61;56.67;102247.56;5077759;28;20055;-48
2023/10/01 02:56:52;;;;;;;4.55;3.55;;;;;;;19.59;56.66;102233.34;5073678;28;20052;-52
2023/10/01 02:59:18;;;;;;;4.72;3.22;;;;;;;19.60;56.58;102239.59;5079849;28;20032;-47
2023/10/01 03:01:46;;;;;;;4.38;3.30;;;;;;;19.59;56.29;102240.59;5056892;28;20028;-48
2023/10/01 03:04:15;;;;;;;6.15;3.95;;;;;;;19.44;56.56;102213.16;5072938;28;20039;-48
2023/10/01 03:06:56;;;;;;;4.55;3.30;;;;;;;19.59;56.53;102236.03;5074032;28;20025;-52
2023/10/01 03:09:31;;;;;;;5.18;3.28;;;;;;;19.57;56.69;102234.47;5077632;28;20086;-48
2023/10/01 03:12:24;;;;;;;4.10;3.17;;;;;;;19.58;56.35;102242.44;5079611;28;20092;-50
2023/10/01 03:15:00;;;;;;;5.38;3.65;;;;;;;19.55;56.38;102229.22;5073752;28;20399;-50
2023/10/01 03:17:34;;;;;;;3.80;3.30;;;;;;;19.58;56.81;102234.34;5076034;28;20043;-51
2023/10/01 03:20:12;;;;;;;5.13;3.35;;;;;;;19.58;56.34;102225.38;5074440;28;20035;-49
2023/10/01 03:22:39;;;;;;;5.40;3.30;;;;;;;19.57;56.63;102229.06;5075061;28;20029;-47
2023/10/01 03:25:11;;;;;;;3.67;3.13;;;;;;;19.55;56.31;102223.81;5075100;28;20029;-53
2023/10/01 03:27:39;;;;;;;4.50;3.25;;;;;;;19.57;56.61;102231.75;5075206;28;20025;-48
2023/10/01 03:30:19;;;;;;;5.03;3.67;;;;;;;19.56;56.30;102228.22;5057127;28;20028;-53
2023/10/01 03:32:46;;;;;;;5.05;3.67;;;;;;;19.57;56.44;102226.38;5069894;28;20033;-49
2023/10/01 03:35:12;;;;;;;3.85;2.95;;;;;;;19.56;56.62;102225.53;5074702;28;20025;-52
2023/10/01 03:37:38;;;;;;;3.63;2.75;;;;;;;19.44;56.33;102205.91;5073722;28;20021;-49
2023/10/01 03:40:11;;;;;;;4.10;3.30;;;;;;;19.39;56.40;102200.09;5078860;28;20040;-52
2023/10/01 03:42:37;;;;;;;5.03;3.25;;;;;;;19.54;56.50;102218.56;5070565;28;20063;-52
2023/10/01 03:47:57;;;;;;;3.92;3.08;;;;;;;19.52;56.54;102207.91;5074708;28;20036;-50
2023/10/01 03:50:24;;;;;;;5.55;3.00;;;;;;;19.55;56.58;102210.34;5077438;28;20024;-49
2023/10/01 03:52:52;;;;;;;3.63;2.80;;;;;;;19.55;56.68;102210.34;5072800;28;20037;-50
2023/10/01 03:55:30;;;;;;;5.60;3.15;;;;;;;19.54;56.29;102208.63;5067000;28;20120;-47
2023/10/01 03:58:42;;;;;;;3.92;3.17;;;;;;;19.53;56.30;102212.31;5070610;28;20422;-51
2023/10/01 04:00:41;;;;;;;4.18;3.30;;;;;;;19.55;56.63;102214.88;5064254;28;20067;-49
2023/10/01 04:03:16;;;;;;;4.53;3.28;;;;;;;19.54;56.43;102218.56;5075592;28;20032;-48
2023/10/01 04:05:46;;;;;;;3.47;2.75;;;;;;;19.49;56.59;102208.19;5069917;28;20037;-47
2023/10/01 04:08:12;;;;;;;4.32;2.92;;;;;;;19.54;56.54;102226.66;5074058;28;20040;-48
2023/10/01 04:10:39;;;;;;;4.60;3.85;;;;;;;19.53;56.53;102219.56;5075677;28;20028;-51
2023/10/01 04:13:40;;;;;;;5.55;3.63;;;;;;;19.49;56.15;102222.53;5071409;28;20024;-49
2023/10/01 04:16:08;;;;;;;5.28;3.55;;;;;;;19.53;56.60;102214.16;5072092;28;20041;-48
2023/10/01 04:18:34;;;;;;;3.85;2.88;;;;;;;19.53;56.58;102208.75;5071100;28;20021;-49
2023/10/01 04:23:30;;;;;;;4.95;3.30;;;;;;;19.48;56.20;102206.50;5070930;28;20029;-52
2023/10/01 04:26:06;;;;;;;4.43;3.28;;;;;;;19.52;56.61;102204.38;5074898;28;20047;-48
2023/10/01 04:28:35;;;;;;;3.88;3.00;;;;;;;19.52;56.32;102210.59;5071845;28;20033;-49
2023/10/01 04:31:03;;;;;;;4.32;3.58;;;;;;;19.52;56.33;102199.81;5071659;28;20108;-50
2023/10/01 04:33:29;;;;;;;4.05;3.17;;;;;;;19.51;56.36;102202.66;5072894;28;20025;-49
2023/10/01 04:36:01;;;;;;;3.42;2.90;;;;;;;19.51;56.42;102200.81;5073081;28;20108;-49
2023/10/01 04:38:29;;;;;;;4.70;2.90;;;;;;;19.50;56.40;102212.63;5074103;28;20028;-49
2023/10/01 04:40:58;;;;;;;3.90;2.75;;;;;;;19.51;56.32;102213.47;5069073;28;20048;-48
2023/10/01 04:43:26;;;;;;;;;;;;;;;19.51;56.22;102211.59;5072475;28;20055;-50
2023/10/01 04:45:52;;;;;;;5.25;2.90;;;;;;;19.28;56.57;102173.25;5073350;28;20039;-50
2023/10/01 04:48:22;;;;;;;3.97;3.20;;;;;;;19.49;56.74;102217.13;5071705;28;20052;-49
2023/10/01 04:50:50;;;;;;;5.47;3.30;;;;;;;19.47;56.42;102208.34;5073514;28;20028;-52
2023/10/01 04:53:19;;;;;;;5.13;3.50;;;;;;;19.48;56.36;102218.13;5072120;28;20136;-51
2023/10/01 04:55:57;;;;;;;5.88;4.30;;;;;;;19.35;56.38;102192.44;5068428;28;20526;-48
2023/10/01 04:58:23;;;;;;;4.97;3.20;;;;;;;19.48;56.41;102220.81;5072769;28;20083;-48
2023/10/01 05:00:49;;;;;;;4.82;3.33;;;;;;;19.49;56.49;102216.28;5069285;28;20025;-49
2023/10/01 05:03:15;;;;;;;4.80;3.42;;;;;;;19.48;56.33;102220.81;5075286;28;20028;-50
2023/10/01 05:05:42;;;;;;;4.10;3.25;;;;;;;19.46;56.13;102213.88;5073032;28;20025;-50
2023/10/01 05:08:09;;;;;;;4.53;2.72;;;;;;;19.48;56.41;102226.22;5071435;28;20025;-49
2023/10/01 05:10:51;;;;;;;4.30;3.40;;;;;;;19.48;56.31;102222.66;5075303;28;20020;-50
2023/10/01 05:13:22;;;;;;;4.43;2.92;;;;;;;19.46;56.35;102214.72;5072093;28;20040;-49
2023/10/01 05:15:49;;;;;;;4.35;3.00;;;;;;;19.48;56.57;102222.66;5067651;28;20032;-53
2023/10/01 05:18:19;;;;;;;4.30;2.80;;;;;;;19.44;56.51;102223.94;5073497;28;20047;-49
2023/10/01 05:20:48;;;;;;;3.90;3.08;;;;;;;19.47;56.25;102229.91;5072991;28;20028;-49
2023/10/01 05:23:14;;;;;;;3.90;2.90;;;;;;;19.48;56.38;102228.06;5077020;28;20020;-48
2023/10/01 05:25:45;;;;;;;5.72;3.58;;;;;;;19.45;56.38;102218.44;5072006;28;20067;-48
2023/10/01 05:28:23;;;;;;;4.53;3.30;;;;;;;19.46;56.30;102228.22;5071553;28;20036;-50
2023/10/01 05:30:56;;;;;;;4.30;3.10;;;;;;;19.27;56.47;102190.44;5073195;28;20021;-49
2023/10/01 05:33:23;;;;;;;4.80;3.63;;;;;;;19.46;56.58;102217.44;5071188;28;20036;-50
2023/10/01 05:35:52;;;;;;;4.40;2.90;;;;;;;19.44;56.17;102215.84;5067868;28;20410;-48
2023/10/01 05:38:19;;;;;;;3.78;2.72;;;;;;;19.46;56.36;102227.38;5073686;28;20039;-50
2023/10/01 05:40:44;;;;;;;5.28;3.55;;;;;;;19.45;56.54;102229.22;5071872;28;20029;-48
2023/10/01 05:43:13;;;;;;;4.85;3.30;;;;;;;19.46;56.33;102228.22;5069049;28;20032;-49
2023/10/01 05:45:52;;;;;;;;;;;;;;;19.46;56.49;102233.63;5054794;28;20033;-52
2023/10/01 05:48:23;;;;;;;5.57;3.42;;;;;;;19.45;56.55;102226.53;5067739;28;19909;-50
2023/10/01 05:50:49;;;;;;;4.60;3.30;;;;;;;19.44;56.40;102237.44;5075852;28;20017;-49
2023/10/01 05:53:17;;;;;;;2.75;2.40;;;;;;;19.40;56.16;102236.00;5072436;28;20039;-48
2023/10/01 05:55:43;;;;;;;4.47;2.80;;;;;;;19.31;56.34;102209.88;5070760;28;20107;-50
2023/10/01 05:58:19;;;;;;;4.40;2.80;;;;;;;19.44;56.45;102240.13;5071250;28;20028;-47
2023/10/01 06:01:05;;;;;;;4.88;3.38;;;;;;;19.41;56.59;102235.00;5071205;28;20028;-49
2023/10/01 06:03:30;;;;;;;3.75;3.05;;;;;;;19.38;56.42;102228.06;5070419;28;20033;-48
2023/10/01 06:05:58;;;;;;;4.90;3.20;;;;;;;19.43;56.45;102244.69;5068544;28;20123;-48
2023/10/01 06:08:32;;;;;;;4.70;2.75;;;;;;;19.44;56.37;102245.53;5068481;28;20056;-48
2023/10/01 06:11:05;;;;;;;5.05;3.33;;;;;;;19.35;56.52;102231.03;5067106;28;20025;-48
2023/10/01 06:13:34;;;;;;;5.85;3.38;;;;;;;19.44;56.37;102250.91;5052438;28;20056;-48
2023/10/01 06:16:11;;;;;;;;;;;;;;;19.43;56.19;102244.69;5071512;28;20104;-49
2023/10/01 06:18:43;;;;;;;4.13;2.92;;;;;;;19.36;56.38;102238.13;5069659;28;19912;-50
2023/10/01 06:21:10;;;;;;;4.15;2.90;;;;;;;19.42;56.51;102247.53;5070010;28;20044;-48
2023/10/01 06:23:49;;;;;;;3.92;3.00;;;;;;;19.42;56.19;102248.38;5075501;28;20044;-49
2023/10/01 06:26:37;;;;;;;3.75;2.92;;;;;;;19.42;56.60;102239.44;5072337;28;20090;-50
2023/10/01 06:29:10;;;;;;;4.80;3.63;;;;;;;19.42;56.15;102242.13;5071525;28;20035;-51
2023/10/01 06:31:52;;;;;;;4.57;2.92;;;;;;;19.42;56.58;102234.88;5069923;28;20024;-50
2023/10/01 06:34:21;;;;;;;5.13;3.05;;;;;;;19.42;56.31;102234.03;5054544;28;20017;-48
2023/10/01 06:36:58;;;;;;;5.20;3.10;;;;;;;19.41;56.32;102237.69;5072521;28;20058;-47
2023/10/01 06:39:33;;;;;;;3.55;2.90;;;;;;;19.41;56.61;102235.88;5072874;28;20116;-49
2023/10/01 06:44:48;;;;;;;4.57;3.00;;;;;;;19.42;56.48;102236.72;5070914;28;20065;-50
2023/10/01 06:47:17;;;;;;;3.88;2.70;;;;;;;19.42;56.42;102231.34;5071725;28;20030;-48
2023/10/01 06:50:20;;;;;;;4.13;3.08;;;;;;;19.42;56.55;102231.34;5068566;28;20088;-49
2023/10/01 06:52:41;;;;;;;4.25;2.70;;;;;;;19.42;56.31;102234.88;5067671;28;20036;-48
2023/10/01 06:55:08;;;;;;;4.38;3.20;;;;;;;19.42;56.15;102228.63;5071408;28;20021;-50
2023/10/01 06:57:33;;;;;;;4.43;2.92;;;;;;;19.42;56.61;102234.03;5072847;28;20029;-52
2023/10/01 07:00:13;;;;;;;4.80;3.20;;;;;;;19.43;56.32;102225.78;5071730;28;20077;-49
2023/10/01 07:02:39;;;;;;;4.60;3.40;;;;;;;19.43;56.53;102233.88;5070471;28;20032;-52
2023/10/01 07:05:04;;;;;;;3.80;2.85;;;;;;;19.42;56.34;102237.59;5055075;28;20056;-50
2023/10/01 07:07:30;;;;;;;4.07;3.00;;;;;;;19.43;56.32;102231.19;5072719;28;20082;-53
2023/10/01 07:10:03;;;;;;;5.47;3.55;;;;;;;19.44;56.26;102242.81;5062204;28;20510;-51
2023/10/01 07:12:29;;;;;;;6.65;3.72;;;;;;;19.44;56.71;102240.13;5073347;28;20084;-50
2023/10/01 07:14:54;;;;;;;5.05;3.03;;;;;;;19.43;56.60;102244.69;5070951;28;20025;-52
2023/10/01 07:17:24;;;;;;;4.13;3.15;;;;;;;19.44;56.47;102245.53;5069356;28;20108;-53
2023/10/01 07:19:59;;;;;;;5.15;2.90;;;;;;;19.44;56.63;102251.75;5077858;28;20025;-49
2023/10/01 07:22:26;;;;;;;5.28;3.28;;;;;;;19.43;56.52;102244.69;5075997;28;20033;-49
2023/10/01 07:24:52;;;;;;;4.82;3.00;;;;;;;19.45;56.68;102249.91;5073051;28;20648;-51
2023/10/01 07:27:17;;;;;;;5.40;3.25;;;;;;;19.45;56.46;102241.81;5076458;28;20278;-50
2023/10/01 07:29:43;;;;;;;4.72;3.60;;;;;;;19.45;56.81;102234.63;5075527;28;20032;-50
2023/10/01 07:32:12;;;;;;;5.35;3.30;;;;;;;19.32;56.60;102212.44;5052930;28;20086;-54
2023/10/01 07:34:48;;;;;;;3.88;2.92;;;;;;;19.45;56.39;102240.00;5076255;28;20036;-53
2023/10/01 07:37:23;;;;;;;4.28;2.92;;;;;;;19.46;56.84;102235.47;5072082;28;20231;-51
2023/10/01 07:39:52;;;;;;;5.68;3.58;;;;;;;19.30;56.66;102206.34;5074256;28;20069;-51
2023/10/01 07:42:17;;;;;;;5.10;3.28;;;;;;;19.46;56.54;102235.47;5076360;28;20048;-50
2023/10/01 07:44:45;;;;;;;5.85;3.58;;;;;;;19.46;56.72;102232.75;5054439;28;20048;-55
2023/10/01 07:47:28;;;;;;;5.47;3.83;;;;;;;19.47;56.87;102237.16;5076616;28;20042;-50
2023/10/01 07:49:56;;;;;;;5.50;3.45;;;;;;;19.47;56.77;102237.16;5073447;28;20458;-49
2023/10/01 07:52:23;;;;;;;6.22;3.15;;;;;;;19.47;56.77;102243.41;5071594;28;20032;-50
2023/10/01 07:54:49;;;;;;;4.63;3.00;;;;;;;19.47;56.74;102246.09;5059652;28;20033;-48
2023/10/01 07:57:24;;;;;;;5.28;3.85;;;;;;;19.47;57.02;102246.09;5073359;28;20032;-53
2023/10/01 07:59:53;;;;;;;4.18;2.92;;;;;;;19.49;57.17;102254.88;5056039;28;20024;-49
2023/10/01 08:04:50;;;;;;;4.53;3.00;;;;;;;19.51;57.04;102252.06;5076215;28;20033;-48
2023/10/01 08:07:18;;;;;;;5.75;3.25;;;;;;;19.51;56.92;102257.47;5072381;28;20021;-49
2023/10/01 08:09:51;;;;;;;5.03;3.22;;;;;;;19.53;56.91;102252.78;5073921;28;20112;-50
2023/10/01 08:12:19;;;;;;;6.22;3.30;;;;;;;19.54;57.13;102250.91;5074414;28;20397;-49
2023/10/01 08:15:15;;;;;;;4.55;3.00;;;;;;;19.54;56.93;102241.00;5051375;28;20035;-50
2023/10/01 08:17:32;;;;;;;7.05;3.60;;;;;;;19.55;56.65;102244.56;5072365;28;20033;-51
2023/10/01 08:20:14;;;;;;;5.68;3.42;;;;;;;19.55;57.02;102234.63;5071571;28;20037;-51
2023/10/01 08:23:12;;;;;;;4.20;3.17;;;;;;;19.56;56.70;102233.63;5067965;28;20047;-50
2023/10/01 08:25:32;;;;;;;8.05;3.95;;;;;;;19.57;56.55;102240.72;5071855;28;20035;-49
2023/10/01 08:30:43;;;;;;;5.50;3.75;;;;;;;19.53;56.67;102239.28;5068150;28;20029;-51
2023/10/01 08:33:24;;;;;;;6.30;4.05;;;;;;;19.58;56.28;102242.44;5070123;28;20098;-48
2023/10/01 08:36:12;;;;;;;6.63;3.53;;;;;;;19.51;56.41;102222.41;5070980;28;20392;-52
2023/10/01 08:38:39;;;;;;;5.45;3.30;;;;;;;19.59;56.65;102248.69;5074789;28;20111;-53
2023/10/01 08:41:05;;;;;;;4.40;3.38;;;;;;;19.60;56.60;102243.13;5074430;28;20036;-48
2023/10/01 08:43:34;;;;;;;5.82;3.40;;;;;;;19.42;56.67;102207.91;5075474;28;20108;-52
2023/10/01 08:46:08;;;;;;;6.65;3.05;;;;;;;19.59;56.85;102245.97;5071514;28;20055;-48
2023/10/01 08:48:36;;;;;;;6.05;4.07;;;;;;;19.59;56.74;102243.28;5070615;28;20041;-49
2023/10/01 08:51:11;;;;;;;5.45;3.53;;;;;;;19.61;56.44;102246.72;5039629;28;20193;-51
2023/10/01 08:53:41;;;;;;;6.32;3.70;;;;;;;19.62;56.72;102240.31;5053241;28;20024;-50
2023/10/01 08:56:32;;;;;;;6.10;3.65;;;;;;;19.61;56.68;102241.31;5072619;28;20021;-50
2023/10/01 08:58:59;;;;;;;5.10;3.30;;;;;;;19.62;56.54;102245.72;5072520;28;20052;-53
2023/10/01 09:01:27;;;;;;;5.85;3.15;;;;;;;19.62;56.84;102254.66;5070746;28;20021;-50
2023/10/01 09:03:55;;;;;;;4.82;3.25;;;;;;;19.58;56.51;102241.56;5071098;28;20036;-48
2023/10/01 09:06:28;;;;;;;6.97;4.03;;;;;;;19.62;56.89;102254.66;5073372;28;20033;-52
2023/10/01 09:08:55;;;;;;;5.15;2.85;;;;;;;19.63;56.56;102263.63;5072367;28;20037;-49
2023/10/01 09:11:43;;;;;;;7.47;3.35;;;;;;;19.62;56.63;102257.34;5071463;28;20487;-51
2023/10/01 09:14:19;;;;;;;5.20;3.10;;;;;;;19.64;56.59;102254.53;5074122;28;20207;-51
2023/10/01 09:16:46;;;;;;;4.80;3.33;;;;;;;19.64;56.78;102254.53;5070144;28;20040;-52
2023/10/01 09:19:31;;;;;;;6.18;3.15;;;;;;;19.63;57.09;102259.09;5074359;28;20033;-53
2023/10/01 09:22:07;;;;;;;6.65;3.50;;;;;;;19.64;56.92;102260.78;5072805;28;20024;-49
2023/10/01 09:24:39;;;;;;;6.93;3.55;;;;;;;19.64;56.89;102255.38;5072881;28;20379;-47
2023/10/01 09:27:09;;;;;;;5.53;3.40;;;;;;;19.65;56.93;102256.22;5072757;28;20380;-50
2023/10/01 09:29:46;;;;;;;7.55;3.15;;;;;;;19.64;57.14;102254.53;5073792;28;20054;-51
2023/10/01 09:32:13;;;;;;;8.77;3.60;;;;;;;19.53;56.80;102227.66;5055242;28;20141;-52
2023/10/01 09:34:58;;;;;;;6.32;3.03;;;;;;;19.65;56.65;102248.97;5071154;28;20547;-49
2023/10/01 09:37:42;;;;;;;5.72;3.40;;;;;;;19.66;56.84;102247.13;5072315;28;20028;-49
2023/10/01 09:42:57;;;;;;;7.18;4.35;;;;;;;19.66;56.89;102247.97;5072631;28;20039;-51
2023/10/01 09:45:26;;;;;;;5.32;3.08;;;;;;;19.66;57.10;102250.69;5074741;28;20028;-50
2023/10/01 09:47:59;;;;;;;5.75;3.25;;;;;;;19.66;57.02;102245.28;5056363;28;20177;-51
2023/10/01 09:50:24;;;;;;;5.88;3.40;;;;;;;19.68;56.88;102259.50;5075880;28;20024;-51
2023/10/01 09:52:52;;;;;;;5.90;3.28;;;;;;;19.67;57.06;102255.09;5058516;28;20025;-51
2023/10/01 09:55:29;;;;;;;4.50;2.90;;;;;;;19.69;56.86;102257.66;5055595;28;20080;-51
2023/10/01 09:57:55;;;;;;;5.10;3.40;;;;;;;19.70;57.20;102245.84;5076475;28;20021;-49
2023/10/01 10:00:42;;;;;;;4.65;3.00;;;;;;;19.69;56.93;102253.09;5045477;28;20016;-49
2023/10/01 10:03:11;;;;;;;5.75;3.20;;;;;;;19.57;56.95;102220.97;5070542;28;20118;-52
2023/10/01 10:05:39;;;;;;;;;;;;;;;19.71;57.01;102244.91;5037779;28;20047;-48
2023/10/01 10:08:15;;;;;;;5.25;2.78;;;;;;;19.69;57.25;102233.38;5070739;28;19912;-51
2023/10/01 10:10:48;;;;;;;5.47;3.30;;;;;;;19.70;57.14;102238.63;5051573;28;20031;-51
2023/10/01 10:13:45;;;;;;;5.20;3.58;;;;;;;19.71;57.05;102242.19;5072991;28;20021;-48
2023/10/01 10:16:33;;;;;;;5.18;3.33;;;;;;;19.71;57.33;102240.34;5070422;28;20052;-51
2023/10/01 10:19:22;;;;;;;5.70;3.40;;;;;;;19.72;57.30;102238.50;5072611;28;20029;-51
2023/10/01 10:24:35;;;;;;;6.63;3.63;;;;;;;19.73;57.18;102232.09;5071575;28;20083;-52
2023/10/01 10:27:08;;;;;;;5.65;3.47;;;;;;;19.71;57.42;102210.66;5063666;28;20124;-51
2023/10/01 10:29:56;;;;;;;5.78;3.17;;;;;;;19.76;57.36;102206.69;5071878;28;20033;-49
2023/10/01 10:32:24;;;;;;;5.78;4.13;;;;;;;19.77;57.20;102205.69;5070478;28;20032;-51
2023/10/01 10:35:03;;;;;;;5.70;3.22;;;;;;;19.78;57.14;102207.38;5069066;28;20435;-53
2023/10/01 10:37:35;;;;;;;6.90;3.70;;;;;;;19.79;57.38;102203.69;5068774;28;20455;-49
2023/10/01 10:40:12;;;;;;;5.53;3.55;;;;;;;19.60;57.40;102172.13;5070375;28;20055;-51
2023/10/01 10:42:41;;;;;;;5.35;3.45;;;;;;;19.79;57.44;102203.69;5071690;28;20074;-50
2023/10/01 10:45:42;;;;;;;7.60;3.78;;;;;;;19.82;57.35;102198.84;5050543;28;20049;-50
2023/10/01 10:48:09;;;;;;;7.15;4.13;;;;;;;19.83;57.20;102197.84;5070919;28;20056;-51
2023/10/01 10:50:44;;;;;;;6.13;3.90;;;;;;;19.85;57.33;102203.13;5061663;28;20046;-51
2023/10/01 10:53:17;;;;;;;6.93;3.92;;;;;;;19.86;57.39;102199.41;5076303;28;20032;-53
2023/10/01 10:56:05;;;;;;;7.53;4.15;;;;;;;19.87;57.41;102193.03;5077879;28;20012;-53
2023/10/01 10:58:37;;;;;;;6.72;3.95;;;;;;;19.86;57.63;102189.47;5074303;28;20369;-51
2023/10/01 11:01:15;;;;;;;7.28;3.85;;;;;;;19.88;57.26;102183.91;5073410;28;20036;-50
2023/10/01 11:03:42;;;;;;;8.02;4.30;;;;;;;19.88;57.62;102192.91;5074259;28;20078;-49
2023/10/01 11:06:23;;;;;;;6.78;3.53;;;;;;;19.89;57.29;102200.00;5072351;28;20075;-50
2023/10/01 11:08:50;;;;;;;5.90;3.75;;;;;;;19.89;57.33;102200.00;5075011;28;20020;-49
2023/10/01 11:11:25;;;;;;;7.22;3.90;;;;;;;19.90;57.29;102201.69;5072319;28;20013;-51
2023/10/01 11:14:00;;;;;;;5.72;3.40;;;;;;;19.91;57.44;102203.38;5076839;28;20025;-52
2023/10/01 11:16:38;;;;;;;7.55;4.55;;;;;;;19.84;57.61;102177.97;5073495;28;20037;-49
2023/10/01 11:19:15;;;;;;;7.15;3.65;;;;;;;19.73;57.67;102164.63;5069141;28;20025;-50
2023/10/01 11:21:58;;;;;;;5.55;3.80;;;;;;;19.92;57.70;102202.41;5073452;28;20027;-51
2023/10/01 11:24:25;;;;;;;6.75;4.47;;;;;;;19.91;57.71;102199.84;5054668;28;20024;-49
2023/10/01 11:27:17;;;;;;;8.32;4.72;;;;;;;19.79;57.54;102174.00;5077445;28;20025;-52
2023/10/01 11:35:59;;;;;;;10.27;5.57;;;;;;;20.00;57.86;102204.38;5056305;28;20036;-49
2023/10/01 11:38:26;;;;;;;11.02;6.25;;;;;;;20.01;57.95;102205.22;5077872;28;20024;-51
2023/10/01 11:41:06;;;;;;;7.32;4.65;;;;;;;20.01;57.92;102208.78;5078848;28;20574;-48
2023/10/01 11:43:59;;;;;;;8.85;5.22;;;;;;;20.04;58.11;102196.84;5060990;28;20071;-52
2023/10/01 11:46:29;;;;;;;10.43;4.95;;;;;;;20.06;58.24;102192.16;5074324;28;20024;-48
2023/10/01 11:48:56;;;;;;;8.18;5.15;;;;;;;20.07;58.19;102192.00;5072953;28;20024;-51
2023/10/01 11:51:32;;;;;;;8.38;4.68;;;;;;;20.08;57.94;102187.44;5073231;28;20028;-49
2023/10/01 11:54:11;;;;;;;11.30;5.57;;;;;;;20.09;57.97;102200.81;5075583;28;20032;-49
2023/10/01 11:56:41;;;;;;;8.82;4.97;;;;;;;20.11;57.75;102185.31;5074590;28;20120;-51
2023/10/01 11:59:17;;;;;;;9.77;5.13;;;;;;;20.12;57.92;102178.91;5074331;28;20028;-51
2023/10/01 12:01:54;;;;;;;8.65;4.70;;;;;;;20.13;57.95;102177.91;5070308;28;20094;-49
2023/10/01 12:04:24;;;;;;;9.23;5.28;;;;;;;20.15;58.22;102167.81;5074059;28;20032;-48
2023/10/01 12:06:54;;;;;;;7.93;4.70;;;;;;;20.16;58.04;102172.22;5067793;28;20541;-50
2023/10/01 12:09:20;;;;;;;9.50;5.55;;;;;;;20.17;57.81;102164.97;5074591;28;20022;-50
2023/10/01 12:12:04;;;;;;;10.75;5.75;;;;;;;20.19;57.93;102162.97;5071443;28;20017;-48
2023/10/01 12:14:39;;;;;;;8.05;4.93;;;;;;;20.19;58.31;102171.94;5066984;28;20036;-49
2023/10/01 12:17:05;;;;;;;10.77;5.28;;;;;;;20.14;58.21;102152.63;5072926;28;20055;-50